Lapaz, Indiana
Current Conditions -  °F | °C
As of 11:54 PM on Thursday 27 Nov 2014 (Local Time) from KSBN Reporting Station
Overcast Overcast  
Wind Chill: 14°   Ceiling: 4000
Heat Index: 23°   Visibility: 10mi
Dew Point: 14°   Wind: 8mph
Humidity: 68%   Direction: 250°WSW
Pressure: 30.36"   Gusts: NA
Location:  41.46°N, 86.31°W
Report Text: KSBN 280454Z 25007KT 10SM OVC040 M05/M10 A3036 RMK AO2 SLP293 T10501100 410061061
Loading
Personal Weather Stations






























Interactive Weather Map New forecast layout! Learn more

10-Day Weather Forecast

Advertisements
Track Severe Weather on mobile